Time;durP1;ratioP1;P1;durP2;ratioP2;P2;SDS_P1;SDS_P2;PMS_P1;PMS_P2;Temp;Humidity;BMP_temperature;BMP_pressure;BME280_temperature;BME280_humidity;BME280_pressure;Samples;Min_cycle;Max_cycle;Signal;HPM_P1;HPM_P2
2021/07/26 00:00:11;;;;;;;2.47;2.27;;;22.70;99.90;;;23.00;59.99;100533.28;4949426;28;99363;-48
2021/07/26 00:02:36;;;;;;;2.80;2.60;;;22.70;99.90;;;23.00;59.82;100533.28;4933132;28;97487;-47
2021/07/26 00:05:04;;;;;;;3.27;2.30;;;22.70;99.90;;;22.99;60.05;100524.34;4950008;28;97258;-48
2021/07/26 00:07:30;;;;;;;2.60;2.40;;;22.70;99.90;;;22.99;59.86;100524.34;4930343;28;99734;-47
2021/07/26 00:09:56;;;;;;;3.17;2.87;;;22.70;99.90;;;22.97;60.04;100534.41;4950233;28;97218;-47
2021/07/26 00:12:22;;;;;;;2.23;2.10;;;22.70;99.90;;;22.99;59.91;100521.66;4937342;28;97257;-49
2021/07/26 00:14:47;;;;;;;4.80;2.30;;;22.70;99.90;;;23.02;59.73;100524.09;4947793;28;97600;-53
2021/07/26 00:17:13;;;;;;;2.67;2.47;;;22.80;99.90;;;23.06;59.76;100527.34;4949513;28;97097;-50
2021/07/26 00:19:39;;;;;;;2.27;2.07;;;22.90;99.90;;;23.07;59.64;100529.06;4946601;28;117904;-51
2021/07/26 00:22:05;;;;;;;1.97;1.83;;;22.90;99.90;;;23.11;59.47;100522.41;4951931;28;96966;-50
2021/07/26 00:24:31;;;;;;;2.17;1.97;;;22.90;99.90;;;23.14;59.28;100528.34;4913383;28;97123;-51
2021/07/26 00:26:57;;;;;;;4.80;4.17;;;23.00;99.90;;;23.13;59.53;100523.09;4948648;28;102979;-48
2021/07/26 00:29:23;;;;;;;1.90;1.80;;;23.00;99.90;;;23.12;59.32;100526.78;4952127;28;103415;-49
2021/07/26 00:31:49;;;;;;;4.63;3.87;;;22.90;99.90;;;23.13;59.48;100523.09;4945206;28;102990;-54
2021/07/26 00:34:19;;;;;;;4.27;3.17;;;23.00;99.90;;;23.13;59.31;100520.41;4951020;28;96947;-51
2021/07/26 00:36:57;;;;;;;1.93;1.83;;;22.90;99.90;;;23.13;59.50;100523.09;4930210;28;97543;-54
2021/07/26 00:39:36;;;;;;;6.80;4.37;;;22.90;99.90;;;23.10;59.61;100523.38;4932961;28;98184;-51
2021/07/26 00:42:03;;;;;;;2.47;2.27;;;22.90;99.90;;;23.10;59.49;100523.38;4930715;28;97940;-51
2021/07/26 00:44:31;;;;;;;2.20;2.00;;;22.90;99.90;;;23.10;59.30;100528.78;4946684;28;96994;-48
2021/07/26 00:46:57;;;;;;;2.20;2.00;;;22.90;99.90;;;23.10;59.46;100523.38;4930783;28;97391;-51
2021/07/26 00:49:25;;;;;;;2.00;1.90;;;22.90;99.90;;;23.09;59.51;100517.16;4949950;28;97541;-54
2021/07/26 00:51:57;;;;;;;2.37;2.17;;;22.80;99.90;;;23.09;59.46;100517.16;4927215;28;97436;-51
2021/07/26 00:54:30;;;;;;;2.93;2.63;;;22.90;99.90;;;23.10;59.45;100513.47;4949393;28;100069;-51
2021/07/26 00:57:00;;;;;;;1.97;1.87;;;22.90;99.90;;;23.10;59.36;100501.88;4913027;28;104711;-53
2021/07/26 00:59:27;;;;;;;2.30;2.10;;;22.90;99.90;;;23.09;59.36;100505.56;4932926;28;97415;-51
2021/07/26 01:01:54;;;;;;;2.37;2.00;;;22.90;99.90;;;23.10;59.35;100507.25;4946021;28;97737;-48
2021/07/26 01:04:20;;;;;;;3.43;3.13;;;22.90;99.90;;;23.08;59.60;100511.94;4950900;28;97586;-52
2021/07/26 01:06:47;;;;;;;2.10;1.90;;;22.80;99.90;;;23.07;59.50;100507.53;4933401;28;97179;-50
2021/07/26 01:09:14;;;;;;;2.40;2.20;;;22.80;99.90;;;23.09;59.51;100513.63;4956126;28;97169;-51
2021/07/26 01:11:40;;;;;;;2.47;2.27;;;22.80;99.90;;;23.10;59.34;100507.25;4951080;28;100951;-48
2021/07/26 01:14:06;;;;;;;5.03;3.10;;;22.90;99.90;;;23.13;59.43;100515.03;4956825;28;97621;-51
2021/07/26 01:16:32;;;;;;;2.43;2.23;;;22.90;99.90;;;23.11;59.43;100508.94;4930283;28;100382;-54
2021/07/26 01:19:01;;;;;;;3.20;2.90;;;22.90;99.90;;;23.10;59.53;100509.94;4948659;28;99225;-50
2021/07/26 01:21:28;;;;;;;7.37;3.93;;;22.90;99.90;;;23.06;59.60;100516.59;4927883;28;97731;-48
2021/07/26 01:23:55;;;;;;;5.13;3.50;;;22.80;99.90;;;23.01;59.84;100513.47;4931483;28;96914;-50
2021/07/26 01:26:23;;;;;;;4.23;3.80;;;22.70;99.90;;;22.96;60.03;100510.34;4944717;28;119547;-48
2021/07/26 01:28:58;;;;;;;4.30;3.90;;;22.60;99.90;;;22.94;59.97;100506.94;4946947;28;97082;-52
2021/07/26 01:31:24;;;;;;;5.00;3.70;;;22.60;99.90;;;22.88;60.14;100502.13;4944968;28;97027;-54
2021/07/26 01:33:51;;;;;;;4.33;3.53;;;22.50;99.90;;;22.84;60.40;100506.91;4946918;28;97536;-49
2021/07/26 01:36:19;;;;;;;2.63;2.43;;;22.50;99.90;;;22.83;60.29;100506.03;4947487;28;96934;-50
2021/07/26 01:38:45;;;;;;;4.53;3.40;;;22.50;99.90;;;22.80;60.42;100503.59;4944671;28;98808;-51
2021/07/26 01:41:20;;;;;;;4.73;3.20;;;22.50;99.90;;;22.80;60.46;100503.59;4950254;28;97658;-48
2021/07/26 01:47:04;;;;;;;6.33;3.47;;;22.40;99.90;;;22.78;60.55;100508.28;4939172;28;96925;-52
2021/07/26 01:49:46;;;;;;;3.83;3.47;;;22.40;99.90;;;22.70;60.92;100516.16;4946034;28;97460;-51
2021/07/26 01:52:13;;;;;;;3.77;2.67;;;22.40;99.90;;;22.68;60.90;100509.22;4966544;28;97972;-54
2021/07/26 01:54:39;;;;;;;4.60;3.70;;;22.30;99.90;;;22.65;61.11;100502.28;4945484;28;96755;-51
2021/07/26 01:57:06;;;;;;;3.60;3.17;;;22.30;99.90;;;22.65;60.90;100515.72;4948636;28;98916;-53
2021/07/26 01:59:32;;;;;;;4.33;3.90;;;22.30;99.90;;;22.62;61.21;100513.31;4950978;28;98787;-53
2021/07/26 02:01:58;;;;;;;2.57;2.37;;;22.20;99.90;;;22.58;61.13;100511.91;4971937;28;97494;-50
2021/07/26 02:04:24;;;;;;;2.73;2.53;;;22.20;99.90;;;22.63;61.14;100520.38;4954010;28;97266;-53
2021/07/26 02:06:49;;;;;;;3.20;2.83;;;22.30;99.90;;;22.64;61.03;100521.25;4963591;28;128100;-50
2021/07/26 02:09:15;;;;;;;3.57;2.57;;;22.30;99.90;;;22.64;60.97;100527.47;4952332;28;99390;-47
2021/07/26 02:11:41;;;;;;;2.33;2.17;;;22.30;99.90;;;22.67;60.97;100527.19;4948848;28;97373;-49
2021/07/26 02:14:10;;;;;;;4.27;3.10;;;22.40;99.90;;;22.69;60.84;100514.47;4951756;28;99957;-49
2021/07/26 02:16:37;;;;;;;4.90;2.90;;;22.40;99.90;;;22.72;60.61;100519.59;4946507;28;99705;-48
2021/07/26 02:19:05;;;;;;;2.60;2.40;;;22.40;99.90;;;22.75;60.60;100524.69;4949895;28;98183;-51
2021/07/26 02:21:31;;;;;;;7.00;3.77;;;22.50;99.90;;;22.75;60.67;100524.69;4930444;28;97395;-53
2021/07/26 02:23:57;;;;;;;2.23;2.03;;;22.50;99.90;;;22.79;60.46;100531.50;4952633;28;97267;-50
2021/07/26 02:26:23;;;;;;;2.33;2.13;;;22.50;99.90;;;22.83;60.31;100527.56;4949477;28;97689;-50
2021/07/26 02:28:49;;;;;;;2.30;2.10;;;22.60;99.90;;;22.88;60.15;100526.31;4950609;28;97474;-53
2021/07/26 02:31:15;;;;;;;2.10;2.00;;;22.60;99.90;;;22.94;60.02;100533.81;4931793;28;97561;-56
2021/07/26 02:33:41;;;;;;;2.90;2.47;;;22.70;99.90;;;22.98;59.67;100535.25;4934339;28;99107;-49
2021/07/26 02:36:07;;;;;;;3.03;2.73;;;22.80;99.90;;;23.01;59.76;100535.00;4932937;28;98914;-50
2021/07/26 02:38:33;;;;;;;3.97;2.70;;;22.80;99.90;;;23.01;59.73;100535.00;4949113;28;99662;-48
2021/07/26 02:41:12;;;;;;;2.40;2.17;;;22.80;99.90;;;23.01;59.70;100535.00;4947888;28;97286;-53
2021/07/26 02:43:38;;;;;;;2.07;1.87;;;22.70;99.90;;;23.01;59.77;100529.63;4935321;28;97308;-50
2021/07/26 02:46:06;;;;;;;2.80;2.60;;;22.80;99.90;;;23.01;59.59;100535.84;4953076;28;97578;-52
2021/07/26 02:48:36;;;;;;;3.07;2.40;;;22.80;99.90;;;23.00;59.84;100534.16;4934171;28;97784;-51
2021/07/26 02:51:02;;;;;;;3.30;2.97;;;22.70;99.90;;;22.99;59.83;100539.63;4933903;28;96998;-48
2021/07/26 02:53:29;;;;;;;4.97;3.60;;;22.70;99.90;;;22.94;60.12;100549.97;4940295;28;97237;-53
2021/07/26 02:55:54;;;;;;;3.70;3.30;;;22.60;99.90;;;22.90;60.21;100554.78;4951456;28;99781;-53
2021/07/26 02:58:20;;;;;;;3.93;3.37;;;22.60;99.90;;;22.89;60.12;100554.91;4973894;28;97990;-51
2021/07/26 03:00:47;;;;;;;4.57;3.60;;;22.60;99.90;;;22.84;60.45;100553.47;4965974;28;97352;-52
2021/07/26 03:03:13;;;;;;;4.23;3.83;;;22.50;99.90;;;22.81;60.48;100559.09;4956783;28;97446;-49
2021/07/26 03:05:39;;;;;;;3.10;2.80;;;22.40;99.90;;;22.77;60.59;100559.50;4950014;28;96649;-54
2021/07/26 03:08:05;;;;;;;2.23;2.03;;;22.40;99.90;;;22.78;60.53;100566.59;4942556;28;116029;-53
2021/07/26 03:10:31;;;;;;;2.20;2.00;;;22.40;99.90;;;22.80;60.46;100559.22;4944365;28;97445;-52
2021/07/26 03:12:56;;;;;;;2.40;2.20;;;22.50;99.90;;;22.83;60.27;100558.97;4938674;28;97142;-52
2021/07/26 03:15:23;;;;;;;3.77;2.90;;;22.60;99.90;;;22.82;60.39;100566.19;4949648;28;98779;-49
2021/07/26 03:17:50;;;;;;;3.10;2.80;;;22.60;99.90;;;22.81;60.33;100560.94;4915936;28;97185;-47
2021/07/26 03:20:16;;;;;;;2.50;2.30;;;22.50;99.90;;;22.81;60.28;100566.31;4964416;28;98327;-54
2021/07/26 03:22:52;;;;;;;4.67;3.43;;;22.50;99.90;;;22.81;60.09;100567.16;4951568;28;97211;-57
2021/07/26 03:25:19;;;;;;;5.10;3.93;;;22.50;99.90;;;22.78;60.43;100572.81;4969140;28;99360;-54
2021/07/26 03:27:45;;;;;;;4.13;3.73;;;22.50;99.90;;;22.75;60.40;100577.59;4932779;28;97549;-52
2021/07/26 03:30:12;;;;;;;5.37;4.00;;;22.40;99.90;;;22.71;60.54;100577.03;4950391;28;97175;-52
2021/07/26 03:32:38;;;;;;;4.33;3.40;;;22.40;99.90;;;22.64;60.98;100575.84;4948839;28;96909;-51
2021/07/26 03:35:07;;;;;;;6.33;4.57;;;22.30;99.90;;;22.63;60.84;100576.84;4945014;28;104649;-54
2021/07/26 03:37:33;;;;;;;4.60;3.40;;;22.20;99.90;;;22.61;61.06;100569.91;4946852;28;99674;-54
2021/07/26 03:39:59;;;;;;;3.97;3.67;;;22.20;99.90;;;22.60;61.05;100569.06;4943158;28;96758;-50
2021/07/26 03:42:24;;;;;;;4.63;4.23;;;22.20;99.90;;;22.57;61.07;100572.00;4955928;28;104572;-51
2021/07/26 03:44:50;;;;;;;4.90;4.00;;;22.20;99.90;;;22.53;61.19;100575.94;4955222;28;99473;-52
2021/07/26 03:47:16;;;;;;;4.73;4.20;;;22.10;99.90;;;22.50;61.14;100573.50;4950874;28;96795;-51
2021/07/26 03:49:42;;;;;;;5.50;3.77;;;22.10;99.90;;;22.49;61.31;100577.19;4946404;28;117404;-54
2021/07/26 03:52:07;;;;;;;5.13;3.90;;;22.10;99.90;;;22.47;61.37;100577.31;4951813;28;110968;-48
2021/07/26 03:54:33;;;;;;;5.17;3.30;;;22.10;99.90;;;22.47;61.50;100576.47;4961237;28;103740;-48
2021/07/26 03:56:59;;;;;;;3.53;2.60;;;22.10;99.90;;;22.49;61.35;100577.19;4958065;28;97417;-53
2021/07/26 03:59:25;;;;;;;2.17;1.97;;;22.10;99.90;;;22.53;61.25;100579.47;4951486;28;97626;-53
2021/07/26 04:01:57;;;;;;;2.70;2.30;;;22.20;99.90;;;22.58;61.04;100576.41;4965703;28;97211;-50
2021/07/26 04:04:24;;;;;;;1.93;1.83;;;22.30;99.90;;;22.64;60.94;100575.84;4950844;28;99156;-51
2021/07/26 04:06:54;;;;;;;2.10;2.00;;;22.40;99.90;;;22.73;60.74;100582.28;4931225;28;102761;-52
2021/07/26 04:09:22;;;;;;;5.00;3.60;;;22.50;99.90;;;22.78;60.32;100583.56;4944022;28;98350;-52
2021/07/26 04:11:54;;;;;;;3.80;2.50;;;22.60;99.90;;;22.79;60.34;100584.41;4947284;28;97590;-49
2021/07/26 04:14:25;;;;;;;3.30;3.00;;;22.50;99.90;;;22.81;60.44;100585.97;4949718;28;99537;-51
2021/07/26 04:16:51;;;;;;;3.57;3.27;;;22.60;99.90;;;22.82;60.44;100590.41;4947134;28;104137;-48
2021/07/26 04:19:16;;;;;;;2.60;2.40;;;22.50;99.90;;;22.83;60.26;100586.72;4948696;28;97968;-49
2021/07/26 04:21:42;;;;;;;4.57;2.63;;;22.50;99.90;;;22.82;60.47;100582.34;4946538;28;106426;-53
2021/07/26 04:24:08;;;;;;;4.27;3.10;;;22.50;99.90;;;22.81;60.32;100588.66;4949675;28;100005;-53
2021/07/26 04:26:34;;;;;;;4.23;3.50;;;22.50;99.90;;;22.75;60.62;100594.59;4929833;28;101034;-51
2021/07/26 04:29:00;;;;;;;4.60;3.70;;;22.40;99.90;;;22.70;60.50;100590.59;4943193;28;97606;-53
2021/07/26 04:31:26;;;;;;;3.73;2.73;;;22.30;99.90;;;22.63;61.02;100587.59;4938011;28;98445;-57
2021/07/26 04:33:51;;;;;;;4.20;3.27;;;22.20;99.90;;;22.60;61.11;100587.88;4955846;28;101118;-50
2021/07/26 04:36:17;;;;;;;3.20;2.90;;;22.20;99.90;;;22.55;61.26;100595.47;4949109;28;114385;-51
2021/07/26 04:38:43;;;;;;;4.17;3.30;;;22.10;99.90;;;22.47;61.68;100595.28;4942220;28;97731;-53
2021/07/26 04:41:08;;;;;;;4.90;3.70;;;22.10;99.90;;;22.45;61.95;100603.50;4932775;28;98850;-54
2021/07/26 04:43:36;;;;;;;5.97;3.97;;;22.00;99.90;;;22.42;61.82;100597.50;4941713;28;97637;-53
2021/07/26 04:46:02;;;;;;;5.60;3.77;;;22.00;99.90;;;22.32;62.37;100597.47;4948374;28;98752;-50
2021/07/26 04:48:28;;;;;;;5.50;3.90;;;21.90;99.90;;;22.33;62.42;100601.00;4924766;28;97212;-51
2021/07/26 04:50:53;;;;;;;3.60;3.30;;;21.90;99.90;;;22.33;62.02;100598.31;4948899;28;97104;-51
2021/07/26 04:53:19;;;;;;;4.37;3.97;;;21.90;99.90;;;22.30;62.20;100603.94;4931208;28;98120;-51
2021/07/26 04:55:45;;;;;;;3.87;3.43;;;21.90;99.90;;;22.30;62.15;100610.19;4945436;28;109473;-50
2021/07/26 04:58:11;;;;;;;3.03;2.33;;;21.90;99.90;;;22.31;62.11;100606.50;4933074;28;97435;-52
2021/07/26 05:00:36;;;;;;;5.07;3.33;;;21.90;99.90;;;22.33;62.27;100611.75;4928218;28;102942;-50
2021/07/26 05:03:07;;;;;;;2.27;2.07;;;22.00;99.90;;;22.39;61.80;100619.25;4948096;28;109377;-49
2021/07/26 05:05:37;;;;;;;2.53;2.00;;;22.00;99.90;;;22.43;61.65;100626.09;4929578;28;97322;-51
2021/07/26 05:08:03;;;;;;;4.80;3.97;;;22.10;99.90;;;22.48;61.46;100618.50;4933606;28;99415;-48
2021/07/26 05:10:29;;;;;;;4.30;3.40;;;22.20;99.90;;;22.51;61.55;100619.06;4926322;28;96788;-48
2021/07/26 05:12:55;;;;;;;2.10;2.00;;;22.20;99.90;;;22.58;61.23;100619.41;4917708;28;111476;-48
2021/07/26 05:15:21;;;;;;;2.27;2.07;;;22.30;99.90;;;22.64;60.96;100624.25;4946041;28;98865;-52
2021/07/26 05:17:47;;;;;;;1.97;1.87;;;22.40;99.90;;;22.72;60.65;100619.06;4928790;28;97817;-53
2021/07/26 05:20:13;;;;;;;3.13;2.83;;;22.50;99.90;;;22.79;60.54;100616.69;4932038;28;98483;-52
2021/07/26 05:22:39;;;;;;;4.50;2.97;;;22.60;99.90;;;22.83;60.32;100619.00;4939924;28;97749;-50
2021/07/26 05:25:09;;;;;;;2.63;2.20;;;22.70;99.90;;;22.85;60.29;100624.22;4960475;28;97307;-50
2021/07/26 05:27:36;;;;;;;2.50;2.30;;;22.60;99.90;;;22.89;60.14;100616.78;4931167;28;97846;-50
2021/07/26 05:30:06;;;;;;;5.87;3.63;;;22.70;99.90;;;22.89;60.38;100617.63;4949423;28;96884;-49
2021/07/26 05:32:32;;;;;;;2.37;2.17;;;22.70;99.90;;;22.91;59.99;100609.41;4943496;28;97271;-52
2021/07/26 05:34:58;;;;;;;2.07;1.97;;;22.70;99.90;;;22.93;60.08;100619.03;4944635;28;97714;-53
2021/07/26 05:37:23;;;;;;;7.40;3.90;;;22.70;99.90;;;22.93;60.49;100620.88;4944855;28;97640;-54
2021/07/26 05:39:49;;;;;;;3.00;2.23;;;22.70;99.90;;;22.95;59.88;100621.59;4929491;28;97498;-48
2021/07/26 05:42:16;;;;;;;2.83;2.37;;;22.70;99.90;;;22.98;59.77;100622.16;4934617;28;104023;-49
2021/07/26 05:44:43;;;;;;;2.97;2.67;;;22.80;99.90;;;23.00;59.79;100630.09;4946384;28;99366;-51
2021/07/26 05:47:10;;;;;;;2.70;2.50;;;22.80;99.90;;;23.01;59.65;100627.31;4952093;28;96940;-52
2021/07/26 05:49:36;;;;;;;1.87;1.70;;;22.80;99.90;;;23.06;59.75;100624.19;4946573;28;97539;-50
2021/07/26 05:52:03;;;;;;;2.27;2.07;;;22.90;99.90;;;23.09;59.49;100624.75;4952773;28;100169;-51
2021/07/26 05:54:28;;;;;;;1.93;1.83;;;22.90;99.90;;;23.12;59.37;100619.09;4947586;28;97528;-52
2021/07/26 05:56:54;;;;;;;2.10;1.90;;;23.00;99.90;;;23.17;59.21;100621.41;4953021;28;103036;-48
2021/07/26 05:59:21;;;;;;;2.90;2.60;;;23.10;99.90;;;23.20;59.18;100613.06;4950417;28;97384;-47
2021/07/26 06:01:47;;;;;;;1.97;1.87;;;23.10;99.90;;;23.22;59.16;100618.31;4942686;28;97628;-47
2021/07/26 06:04:18;;;;;;;1.85;1.75;;;23.10;99.90;;;23.25;58.83;100613.50;4947471;28;99016;-47
2021/07/26 06:06:47;;;;;;;4.33;3.10;;;23.20;99.90;;;23.29;59.11;100609.56;4932508;28;97595;-46
2021/07/26 06:09:14;;;;;;;2.63;2.10;;;23.20;99.90;;;23.27;58.73;100603.44;4948877;28;97342;-47
2021/07/26 06:11:41;;;;;;;4.27;2.93;;;23.20;99.90;;;23.29;58.88;100604.19;4935091;28;97166;-53
2021/07/26 06:14:08;;;;;;;2.00;1.90;;;23.20;99.90;;;23.27;58.83;100606.13;4946427;28;98894;-48
2021/07/26 06:16:36;;;;;;;3.00;2.70;;;23.20;99.90;;;23.27;58.80;100606.13;4932346;28;96808;-50
2021/07/26 06:19:08;;;;;;;2.57;2.37;;;23.20;99.90;;;23.27;58.96;100611.50;4938791;28;97360;-47
2021/07/26 06:21:44;;;;;;;2.28;1.95;;;23.20;99.90;;;23.30;58.69;100608.56;4944545;28;96985;-48
2021/07/26 06:24:11;;;;;;;2.20;2.00;;;23.20;99.90;;;23.29;58.71;100609.56;4927278;28;102317;-49
2021/07/26 06:26:37;;;;;;;3.78;2.55;;;23.20;99.90;;;23.29;58.89;100606.88;4943640;28;97082;-48
2021/07/26 06:29:04;;;;;;;3.57;2.63;;;23.20;99.90;;;23.29;58.70;100604.19;4946225;28;97250;-48
2021/07/26 06:31:34;;;;;;;3.03;2.40;;;23.20;99.90;;;23.30;58.72;100611.25;4930875;28;97107;-48
2021/07/26 06:34:01;;;;;;;5.87;3.90;;;23.20;99.90;;;23.32;59.06;100614.66;4937882;28;97457;-49
2021/07/26 06:36:28;;;;;;;2.75;2.42;;;23.30;99.90;;;23.29;58.81;100614.94;4944171;28;97349;-49
2021/07/26 06:38:55;;;;;;;2.25;2.05;;;23.20;99.90;;;23.30;58.69;100605.88;4948188;28;97308;-46
2021/07/26 06:41:22;;;;;;;2.30;2.10;;;23.20;99.90;;;23.32;58.46;100609.28;4948260;28;97103;-48
2021/07/26 06:43:50;;;;;;;2.10;1.90;;;23.20;99.90;;;23.29;58.67;100606.88;4942541;28;98485;-47
2021/07/26 06:46:16;;;;;;;3.17;2.83;;;23.20;99.90;;;23.29;58.73;100606.88;4952420;28;97150;-53
2021/07/26 06:48:42;;;;;;;5.30;3.90;;;23.20;99.90;;;23.31;60.05;100612.97;4946288;28;97374;-51
2021/07/26 06:51:08;;;;;;;6.60;3.83;;;23.20;99.90;;;23.25;58.24;100618.88;4954496;28;97331;-54
2021/07/26 06:53:34;;;;;;;4.80;3.40;;;23.10;99.90;;;23.20;58.59;100621.13;4947474;28;99928;-52
2021/07/26 06:56:08;;;;;;;2.87;2.63;;;23.00;99.90;;;23.20;58.71;100617.59;4944509;28;98655;-54
2021/07/26 06:58:34;;;;;;;5.27;4.00;;;23.00;99.90;;;23.12;58.53;100624.50;4953884;28;97076;-52
2021/07/26 07:01:06;;;;;;;3.70;2.87;;;22.90;99.90;;;23.09;58.43;100627.47;4955207;28;99581;-52
2021/07/26 07:03:32;;;;;;;5.07;3.87;;;22.90;99.90;;;23.05;58.84;100622.50;4947305;28;99264;-56
2021/07/26 07:06:14;;;;;;;3.50;3.20;;;22.80;99.90;;;23.06;59.39;100621.50;4956976;28;97277;-51
2021/07/26 07:08:41;;;;;;;6.47;3.33;;;22.80;99.90;;;23.01;59.45;100624.63;4943087;28;99722;-50
2021/07/26 07:11:08;;;;;;;5.17;3.47;;;22.80;99.90;;;23.01;58.79;100626.44;4950441;28;97550;-51
2021/07/26 07:13:37;;;;;;;6.13;2.87;;;22.80;99.90;;;23.02;59.43;100633.53;4946063;28;98627;-51
2021/07/26 07:16:11;;;;;;;2.67;2.30;;;22.80;99.90;;;23.02;59.45;100634.38;4950968;28;97686;-52
2021/07/26 07:18:39;;;;;;;6.03;3.90;;;22.80;99.90;;;23.03;59.37;100636.09;4944154;28;96861;-53
2021/07/26 07:21:05;;;;;;;4.90;3.70;;;22.90;99.90;;;23.01;60.95;100634.53;4949774;28;100451;-52
2021/07/26 07:23:31;;;;;;;4.27;3.63;;;22.80;99.90;;;22.99;58.91;100639.16;4943280;28;101875;-49
2021/07/26 07:25:59;;;;;;;4.60;3.30;;;22.80;99.90;;;23.01;59.58;100642.59;4947740;28;96880;-50
2021/07/26 07:28:25;;;;;;;4.40;3.77;;;22.80;99.90;;;23.03;59.98;100646.84;4945964;28;97460;-56
2021/07/26 07:30:51;;;;;;;4.23;3.00;;;22.80;99.90;;;22.99;59.45;100648.06;4933243;28;108661;-53
2021/07/26 07:33:17;;;;;;;4.30;3.07;;;22.80;99.90;;;22.98;59.31;100642.84;4930044;28;99714;-48
2021/07/26 07:35:43;;;;;;;4.83;3.50;;;22.70;99.90;;;22.98;59.42;100642.84;4933461;28;97234;-53
2021/07/26 07:38:08;;;;;;;3.20;2.90;;;22.70;99.90;;;22.99;59.58;100644.53;4930705;28;100106;-53
2021/07/26 07:40:37;;;;;;;3.47;2.77;;;22.70;99.90;;;22.97;58.71;100651.88;4945660;28;97586;-53
2021/07/26 07:43:05;;;;;;;5.30;3.57;;;22.70;99.90;;;22.98;59.48;100650.91;4932841;28;97482;-51
2021/07/26 07:45:31;;;;;;;5.17;3.80;;;22.70;99.90;;;22.97;59.42;100647.38;4947572;28;97059;-50
2021/07/26 07:47:57;;;;;;;3.20;2.83;;;22.70;99.90;;;22.95;58.94;100654.72;4934734;28;97532;-54
2021/07/26 07:50:24;;;;;;;4.47;2.87;;;22.70;99.90;;;22.92;57.96;100659.53;4949478;28;112671;-56
2021/07/26 07:52:49;;;;;;;4.60;3.37;;;22.70;99.90;;;22.93;58.46;100654.00;4944627;28;99718;-48
2021/07/26 07:55:15;;;;;;;3.80;3.37;;;22.70;99.90;;;22.94;59.13;100652.16;4945450;28;97341;-51
2021/07/26 07:57:41;;;;;;;3.03;2.80;;;22.70;99.90;;;22.98;58.94;100659.81;4942571;28;98473;-56
2021/07/26 08:00:09;;;;;;;3.37;3.07;;;22.80;99.90;;;22.99;58.57;100657.97;4953929;28;101390;-48
2021/07/26 08:02:35;;;;;;;2.77;2.47;;;22.80;99.90;;;22.96;59.34;100655.56;4923364;28;99921;-52
2021/07/26 08:05:01;;;;;;;6.87;3.80;;;22.80;99.90;;;22.97;58.29;100651.88;4937000;28;97026;-50
2021/07/26 08:07:27;;;;;;;5.83;3.53;;;22.80;99.90;;;22.96;58.81;100653.72;4945241;28;97012;-54
2021/07/26 08:09:53;;;;;;;4.73;3.00;;;22.80;99.90;;;22.98;58.00;100659.81;4952022;28;103547;-54
2021/07/26 08:12:19;;;;;;;6.13;3.70;;;22.80;99.90;;;22.99;57.57;100664.22;4947463;28;119728;-50
2021/07/26 08:14:45;;;;;;;5.97;3.37;;;22.80;99.90;;;23.02;57.59;100660.44;4928457;28;98210;-50
2021/07/26 08:17:11;;;;;;;5.73;3.57;;;22.90;99.90;;;23.04;57.35;100658.44;4949294;28;97680;-49
2021/07/26 08:19:37;;;;;;;5.47;3.43;;;22.90;99.90;;;23.06;58.44;100657.31;4943034;28;98411;-48
2021/07/26 08:22:03;;;;;;;4.93;3.00;;;22.90;99.90;;;23.08;58.86;100659.88;4949846;28;97460;-51
2021/07/26 08:24:29;;;;;;;3.20;2.70;;;22.90;99.90;;;23.11;58.79;100656.91;4924816;28;98398;-49
2021/07/26 08:26:55;;;;;;;3.10;2.80;;;23.00;99.90;;;23.15;58.84;100663.75;4932307;28;97328;-53
2021/07/26 08:29:21;;;;;;;4.50;3.47;;;23.00;99.90;;;23.16;58.89;100654.69;4931262;28;100479;-55
2021/07/26 08:31:47;;;;;;;4.67;3.03;;;23.10;99.90;;;23.20;58.61;100661.50;4949201;28;100763;-50
2021/07/26 08:34:13;;;;;;;4.23;3.37;;;23.10;99.90;;;23.22;57.60;100667.59;4933989;28;97488;-50
2021/07/26 08:36:39;;;;;;;3.33;3.03;;;23.10;99.90;;;23.23;58.44;100663.91;4946334;28;97018;-51
2021/07/26 08:39:04;;;;;;;5.47;3.67;;;23.10;99.90;;;23.24;57.97;100665.59;4930002;28;97136;-51
2021/07/26 08:41:30;;;;;;;5.85;3.60;;;23.20;99.90;;;23.24;56.14;100670.13;4929382;28;97175;-50
2021/07/26 08:43:56;;;;;;;4.30;3.80;;;23.10;99.90;;;23.22;57.16;100656.81;4947916;28;103038;-51
2021/07/26 08:46:22;;;;;;;5.32;3.40;;;23.10;99.90;;;23.26;57.04;100666.31;4949475;28;97381;-48
2021/07/26 08:48:49;;;;;;;3.67;3.30;;;23.10;99.90;;;23.25;57.75;100661.94;4922593;28;99785;-53
2021/07/26 08:51:21;;;;;;;5.30;3.60;;;23.10;99.90;;;23.28;57.01;100669.72;4935386;28;103676;-52
2021/07/26 08:53:51;;;;;;;3.53;2.70;;;23.20;99.90;;;23.29;56.95;100666.06;4939070;28;97060;-51
2021/07/26 08:56:18;;;;;;;3.10;2.77;;;23.20;99.90;;;23.30;57.46;100670.47;4954536;28;97197;-49
2021/07/26 08:58:45;;;;;;;3.40;2.90;;;23.20;99.90;;;23.30;57.83;100669.63;4937097;28;99901;-50
2021/07/26 09:01:15;;;;;;;4.33;3.07;;;23.20;99.90;;;23.33;57.20;100674.72;4952605;28;98156;-52
2021/07/26 09:03:42;;;;;;;5.30;3.73;;;23.20;99.90;;;23.30;56.63;100681.22;4957652;28;98903;-50
2021/07/26 09:06:08;;;;;;;4.10;3.27;;;23.20;99.90;;;23.31;57.67;100672.16;4948639;28;97008;-48
2021/07/26 09:08:36;;;;;;;4.80;3.63;;;23.20;99.90;;;23.32;57.41;100671.16;4942169;28;99953;-49
2021/07/26 09:11:04;;;;;;;4.13;3.40;;;23.20;99.90;;;23.32;57.66;100679.25;4931314;28;100048;-49
2021/07/26 09:13:42;;;;;;;4.73;3.73;;;23.20;99.90;;;23.36;56.62;100680.66;4942900;28;97113;-53
2021/07/26 09:16:20;;;;;;;3.07;2.70;;;23.20;99.90;;;23.36;57.99;100677.97;4947147;28;97450;-53
2021/07/26 09:19:05;;;;;;;4.53;3.20;;;23.20;99.90;;;23.37;57.93;100690.44;4950994;28;99290;-54
2021/07/26 09:21:55;;;;;;;4.33;3.13;;;23.20;99.90;;;23.38;58.01;100684.06;4955023;28;99974;-49
2021/07/26 09:24:29;;;;;;;5.27;3.57;;;23.20;99.90;;;23.38;58.34;100684.06;4965811;28;100420;-49
2021/07/26 09:27:10;;;;;;;3.30;3.00;;;23.20;99.90;;;23.41;58.03;100677.56;4935275;28;97318;-48
2021/07/26 09:29:36;;;;;;;6.07;3.97;;;23.30;99.90;;;23.40;57.86;100679.41;4931076;28;97713;-53
2021/07/26 09:32:07;;;;;;;5.50;3.97;;;23.30;99.90;;;23.40;56.98;100682.09;4946282;28;100627;-49
2021/07/26 09:34:37;;;;;;;4.90;2.83;;;23.30;99.90;;;23.43;58.05;100679.16;4947011;28;97201;-51
2021/07/26 09:37:17;;;;;;;3.45;3.08;;;23.40;99.90;;;23.47;58.00;100676.19;4931811;28;97520;-49
2021/07/26 09:39:43;;;;;;;7.55;4.10;;;23.40;99.90;;;23.45;58.52;100676.31;4944793;28;97417;-54
2021/07/26 09:42:28;;;;;;;5.85;3.67;;;23.40;99.90;;;23.48;57.36;100681.41;4930688;28;101872;-50
2021/07/26 09:44:54;;;;;;;4.17;3.27;;;23.40;99.90;;;23.45;55.59;100669.09;4931261;28;97033;-53
2021/07/26 09:47:21;;;;;;;4.80;2.90;;;23.40;99.90;;;23.44;56.76;100677.31;4928299;28;97421;-55
2021/07/26 09:49:48;;;;;;;2.47;2.17;;;23.40;99.90;;;23.44;54.66;100683.53;4930255;28;97725;-47
2021/07/26 09:52:16;;;;;;;4.43;2.40;;;23.40;99.90;;;23.45;54.52;100679.88;4944662;28;99031;-53
2021/07/26 09:54:48;;;;;;;5.07;2.40;;;23.40;99.90;;;23.48;53.97;100677.88;4944168;28;97104;-54
2021/07/26 09:57:23;;;;;;;2.67;2.30;;;23.40;99.90;;;23.49;55.98;100684.97;4942578;28;100816;-55
2021/07/26 09:59:50;;;;;;;3.55;2.50;;;23.40;99.90;;;23.51;55.55;100682.97;4947799;28;100753;-49
2021/07/26 10:02:25;;;;;;;4.72;2.70;;;23.40;99.90;;;23.54;55.65;100680.00;4946164;28;98574;-54
2021/07/26 10:04:51;;;;;;;2.80;2.42;;;23.50;99.90;;;23.55;54.36;100684.41;4928865;28;97414;-48
2021/07/26 10:07:19;;;;;;;2.75;2.55;;;23.50;99.90;;;23.59;56.09;100672.44;4947197;28;97557;-47
2021/07/26 10:09:47;;;;;;;2.50;2.28;;;23.60;99.90;;;23.62;56.26;100677.53;4940762;28;100632;-53
2021/07/26 10:12:18;;;;;;;3.80;3.25;;;23.60;99.90;;;23.62;56.73;100677.53;4930097;28;97244;-51
2021/07/26 10:14:47;;;;;;;4.57;2.65;;;23.60;99.90;;;23.65;56.30;100683.47;4949182;28;101562;-53